createdAt,value
2023-01-26T00:00:09.698Z,101071.16
2023-01-26T00:02:58.147Z,101072.30
2023-01-26T00:05:26.495Z,101071.84
2023-01-26T00:07:55.189Z,101070.38
2023-01-26T00:10:23.461Z,101065.38
2023-01-26T00:12:51.793Z,101060.58
2023-01-26T00:15:19.971Z,101055.77
2023-01-26T00:17:48.226Z,101051.48
2023-01-26T00:20:16.570Z,101048.34
2023-01-26T00:22:44.871Z,101043.66
2023-01-26T00:25:15.602Z,101038.19
2023-01-26T00:27:44.198Z,101035.77
2023-01-26T00:30:14.801Z,101025.28
2023-01-26T00:32:43.383Z,101023.02
2023-01-26T00:35:12.034Z,101019.61
2023-01-26T00:37:43.724Z,101015.95
2023-01-26T00:40:12.671Z,101015.58
2023-01-26T00:42:41.238Z,101014.17
2023-01-26T00:45:10.108Z,101005.69
2023-01-26T00:47:38.478Z,101007.80
2023-01-26T00:50:07.138Z,101006.77
2023-01-26T00:52:35.436Z,101005.06
2023-01-26T00:55:04.515Z,101005.00
2023-01-26T00:57:32.892Z,100996.89
2023-01-26T01:00:01.148Z,100996.99
2023-01-26T01:02:29.645Z,100991.02
2023-01-26T01:04:58.530Z,100989.65
2023-01-26T01:07:26.805Z,100986.85
2023-01-26T01:09:55.085Z,100983.36
2023-01-26T01:12:23.354Z,100978.77
2023-01-26T01:14:51.600Z,100975.41
2023-01-26T01:17:19.982Z,100972.51
2023-01-26T01:19:48.264Z,100969.84
2023-01-26T01:22:16.484Z,100967.50
2023-01-26T01:24:44.863Z,100962.52
2023-01-26T01:27:13.231Z,100960.90
2023-01-26T01:29:41.454Z,100957.08
2023-01-26T01:32:09.719Z,100956.85
2023-01-26T01:34:37.950Z,100963.40
2023-01-26T01:37:06.115Z,100956.71
2023-01-26T01:39:34.424Z,100951.22
2023-01-26T01:42:02.643Z,100943.99
2023-01-26T01:44:30.867Z,100938.67
2023-01-26T01:47:03.129Z,100935.58
2023-01-26T01:49:41.162Z,100941.50
2023-01-26T01:52:26.392Z,100941.59
2023-01-26T01:55:02.244Z,100942.29
2023-01-26T01:57:45.317Z,100939.39
2023-01-26T02:00:20.335Z,100941.48
2023-01-26T02:03:13.710Z,100940.27
2023-01-26T02:06:03.288Z,100941.60
2023-01-26T02:08:38.556Z,100939.76
2023-01-26T02:11:11.925Z,100935.51
2023-01-26T02:13:42.547Z,100936.66
2023-01-26T02:16:11.278Z,100935.59
2023-01-26T02:18:39.554Z,100939.10
2023-01-26T02:21:11.547Z,100940.81
2023-01-26T02:23:48.839Z,100944.10
2023-01-26T02:26:23.301Z,100940.67
2023-01-26T02:28:51.702Z,100936.27
2023-01-26T02:31:22.289Z,100930.20
2023-01-26T02:33:50.829Z,100921.13
2023-01-26T02:36:21.631Z,100918.38
2023-01-26T02:39:08.406Z,100911.83
2023-01-26T02:41:55.333Z,100905.31
2023-01-26T02:44:24.647Z,100905.15
2023-01-26T02:46:53.881Z,100909.98
2023-01-26T02:49:40.860Z,100906.11
2023-01-26T02:52:09.383Z,100902.89
2023-01-26T02:54:56.500Z,100899.30
2023-01-26T02:57:24.842Z,100894.56
2023-01-26T02:59:56.121Z,100900.94
2023-01-26T03:02:24.617Z,100898.81
2023-01-26T03:04:53.440Z,100902.80
2023-01-26T03:07:21.636Z,100904.45
2023-01-26T03:09:49.998Z,100902.86
2023-01-26T03:12:18.881Z,100905.18
2023-01-26T03:15:07.016Z,100900.02
2023-01-26T03:17:35.401Z,100896.20
2023-01-26T03:20:23.905Z,100898.47
2023-01-26T03:23:15.468Z,100894.19
2023-01-26T03:26:02.533Z,100891.92
2023-01-26T03:28:30.907Z,100892.04
2023-01-26T03:30:59.281Z,100897.29
2023-01-26T03:33:27.521Z,100890.54
2023-01-26T03:35:55.895Z,100885.58
2023-01-26T03:38:24.157Z,100885.73
2023-01-26T03:41:11.091Z,100888.39
2023-01-26T03:43:58.362Z,100887.94
2023-01-26T03:46:45.506Z,100891.55
2023-01-26T03:49:32.919Z,100894.00
2023-01-26T03:52:19.706Z,100890.72
2023-01-26T03:55:06.903Z,100885.93
2023-01-26T03:57:35.142Z,100881.87
2023-01-26T04:00:04.799Z,100878.20
2023-01-26T04:02:52.186Z,100876.26
2023-01-26T04:05:39.179Z,100875.02
2023-01-26T04:08:27.420Z,100870.28
2023-01-26T04:10:56.830Z,100867.46
2023-01-26T04:14:03.869Z,100863.73
2023-01-26T04:16:50.981Z,100859.44
2023-01-26T04:19:38.040Z,100856.92
2023-01-26T04:22:06.375Z,100859.48
2023-01-26T04:24:34.592Z,100861.70
2023-01-26T04:27:02.763Z,100860.48
2023-01-26T04:29:31.104Z,100864.71
2023-01-26T04:31:59.300Z,100868.05
2023-01-26T04:34:27.503Z,100860.08
2023-01-26T04:36:55.822Z,100858.98
2023-01-26T04:39:24.016Z,100858.73
2023-01-26T04:41:52.290Z,100852.35
2023-01-26T04:44:20.612Z,100854.61
2023-01-26T04:46:49.107Z,100850.84
2023-01-26T04:49:17.410Z,100849.69
2023-01-26T04:51:45.793Z,100849.62
2023-01-26T04:54:13.981Z,100854.70
2023-01-26T04:56:42.334Z,100856.17
2023-01-26T04:59:11.418Z,100853.58
2023-01-26T05:01:39.633Z,100854.80
2023-01-26T05:04:08.544Z,100850.00
2023-01-26T05:06:37.014Z,100845.91
2023-01-26T05:09:05.697Z,100846.65
2023-01-26T05:11:34.271Z,100848.12
2023-01-26T05:14:02.568Z,100849.48
2023-01-26T05:16:30.837Z,100855.46
2023-01-26T05:18:59.047Z,100854.20
2023-01-26T05:21:34.982Z,100861.09
2023-01-26T05:24:03.228Z,100863.52
2023-01-26T05:26:31.707Z,100860.37
2023-01-26T05:28:59.952Z,100855.48
2023-01-26T05:31:28.293Z,100857.15
2023-01-26T05:33:56.507Z,100858.20
2023-01-26T05:36:24.779Z,100856.33
2023-01-26T05:38:52.945Z,100862.83
2023-01-26T05:41:21.174Z,100862.46
2023-01-26T05:43:49.597Z,100861.88
2023-01-26T05:46:17.785Z,100859.83
2023-01-26T05:48:46.025Z,100861.15
2023-01-26T05:51:14.335Z,100860.23
2023-01-26T05:53:42.523Z,100859.49
2023-01-26T05:56:10.710Z,100862.25
2023-01-26T05:58:39.067Z,100867.66
2023-01-26T06:01:08.866Z,100867.88
2023-01-26T06:03:37.063Z,100867.08
2023-01-26T06:06:05.495Z,100867.00
2023-01-26T06:08:33.729Z,100870.70
2023-01-26T06:11:01.965Z,100871.92
2023-01-26T06:13:30.192Z,100871.68
2023-01-26T06:16:01.889Z,100870.52
2023-01-26T06:18:30.168Z,100872.20
2023-01-26T06:21:01.620Z,100871.89
2023-01-26T06:23:29.995Z,100873.85
2023-01-26T06:26:02.621Z,100875.07
2023-01-26T06:28:31.103Z,100873.86
2023-01-26T06:31:01.007Z,100873.98
2023-01-26T06:33:30.139Z,100878.61
2023-01-26T06:36:03.116Z,100877.51
2023-01-26T06:38:31.794Z,100879.79
2023-01-26T06:41:03.239Z,100874.92
2023-01-26T06:43:35.786Z,100880.25
2023-01-26T06:46:06.316Z,100884.81
2023-01-26T06:48:35.545Z,100886.98
2023-01-26T06:51:15.795Z,100885.09
2023-01-26T06:53:48.772Z,100883.88
2023-01-26T06:56:16.954Z,100881.66
2023-01-26T06:58:45.201Z,100876.50
2023-01-26T07:01:36.799Z,100874.40
2023-01-26T07:04:05.423Z,100869.20
2023-01-26T07:06:33.927Z,100865.98
2023-01-26T07:09:02.200Z,100868.80
2023-01-26T07:11:32.610Z,100866.68
2023-01-26T07:14:00.973Z,100873.77
2023-01-26T07:16:29.665Z,100877.36
2023-01-26T07:18:58.859Z,100878.60
2023-01-26T07:21:27.355Z,100870.77
2023-01-26T07:23:56.026Z,100866.73
2023-01-26T07:26:24.508Z,100863.83
2023-01-26T07:28:52.727Z,100865.82
2023-01-26T07:31:21.060Z,100863.58
2023-01-26T07:33:49.435Z,100854.20
2023-01-26T07:36:17.627Z,100851.13
2023-01-26T07:38:46.374Z,100845.50
2023-01-26T07:41:14.708Z,100846.82
2023-01-26T07:43:42.902Z,100851.96
2023-01-26T07:46:12.480Z,100846.54
2023-01-26T07:48:41.923Z,100849.73
2023-01-26T07:51:11.408Z,100844.11
2023-01-26T07:53:40.104Z,100840.89
2023-01-26T07:56:11.111Z,100843.27
2023-01-26T07:58:40.237Z,100842.73
2023-01-26T08:01:14.180Z,100840.97
2023-01-26T08:03:42.612Z,100843.45
2023-01-26T08:06:13.554Z,100843.48
2023-01-26T08:08:46.108Z,100838.64
2023-01-26T08:11:14.596Z,100836.96
2023-01-26T08:13:42.974Z,100836.56
2023-01-26T08:16:12.921Z,100836.54
2023-01-26T08:18:43.740Z,100839.81
2023-01-26T08:21:14.097Z,100838.92
2023-01-26T08:23:42.727Z,100835.38
2023-01-26T08:26:13.469Z,100838.52
2023-01-26T08:28:41.879Z,100840.80
2023-01-26T08:31:13.153Z,100844.27
2023-01-26T08:33:42.973Z,100846.67
2023-01-26T08:36:13.827Z,100847.80
2023-01-26T08:38:42.810Z,100849.09
2023-01-26T08:41:11.575Z,100855.64
2023-01-26T08:43:39.981Z,100859.41
2023-01-26T08:46:09.925Z,100852.23
2023-01-26T08:48:38.800Z,100851.04
2023-01-26T08:51:08.868Z,100850.45
2023-01-26T08:53:37.869Z,100851.27
2023-01-26T08:56:09.193Z,100850.09
2023-01-26T08:58:38.052Z,100852.45
2023-01-26T09:01:12.367Z,100846.77
2023-01-26T09:03:41.629Z,100852.36
2023-01-26T09:06:11.855Z,100851.45
2023-01-26T09:08:40.426Z,100853.73
2023-01-26T09:11:09.687Z,100847.56
2023-01-26T09:13:39.235Z,100849.08
2023-01-26T09:16:12.774Z,100844.02
2023-01-26T09:18:40.992Z,100843.89
2023-01-26T09:21:10.056Z,100840.14
2023-01-26T09:23:38.968Z,100840.89
2023-01-26T09:26:07.303Z,100840.63
2023-01-26T09:28:35.563Z,100844.70
2023-01-26T09:31:05.968Z,100848.07
2023-01-26T09:33:35.075Z,100853.77
2023-01-26T09:36:09.031Z,100855.11
2023-01-26T09:38:39.009Z,100847.89
2023-01-26T09:41:31.676Z,100845.42
2023-01-26T09:44:17.243Z,100841.59
2023-01-26T09:47:07.982Z,100840.73
2023-01-26T09:49:56.742Z,100834.43
2023-01-26T09:52:34.050Z,100838.45
2023-01-26T09:55:15.522Z,100840.39
2023-01-26T09:58:08.129Z,100836.91
2023-01-26T10:00:53.119Z,100834.45
2023-01-26T10:03:31.488Z,100827.98
2023-01-26T10:06:21.851Z,100829.81
2023-01-26T10:08:50.568Z,100828.15
2023-01-26T10:11:43.511Z,100830.14
2023-01-26T10:14:47.443Z,100832.05
2023-01-26T10:17:22.281Z,100829.00
2023-01-26T10:20:02.938Z,100827.27
2023-01-26T10:22:53.213Z,100822.38
2023-01-26T10:25:36.012Z,100818.86
2023-01-26T10:28:19.243Z,100818.74
2023-01-26T10:30:49.153Z,100809.45
2023-01-26T10:33:28.109Z,100810.14
2023-01-26T10:35:56.908Z,100807.64
2023-01-26T10:38:38.117Z,100807.13
2023-01-26T10:41:17.245Z,100808.09
2023-01-26T10:44:00.252Z,100808.68
2023-01-26T10:46:38.379Z,100807.56
2023-01-26T10:49:09.251Z,100801.42
2023-01-26T10:51:40.100Z,100797.98
2023-01-26T10:54:28.812Z,100798.20
2023-01-26T10:57:00.388Z,100795.14
2023-01-26T10:59:51.074Z,100793.33
2023-01-26T11:02:31.882Z,100799.67
2023-01-26T11:05:09.498Z,100797.70
2023-01-26T11:07:43.092Z,100791.98
2023-01-26T11:10:27.363Z,100790.34
2023-01-26T11:13:18.409Z,100783.74
2023-01-26T11:16:01.784Z,100782.58
2023-01-26T11:18:33.277Z,100787.88
2023-01-26T11:21:17.489Z,100787.05
2023-01-26T11:24:24.377Z,100781.58
2023-01-26T11:27:19.965Z,100779.33
2023-01-26T11:29:57.112Z,100781.18
2023-01-26T11:32:47.212Z,100788.99
2023-01-26T11:35:18.514Z,100793.08
2023-01-26T11:37:54.780Z,100790.54
2023-01-26T11:40:35.319Z,100792.69
2023-01-26T11:43:13.808Z,100799.46
2023-01-26T11:46:04.363Z,100794.84
2023-01-26T11:48:42.133Z,100792.69
2023-01-26T11:51:32.303Z,100792.54
2023-01-26T11:54:00.534Z,100788.45
2023-01-26T11:56:49.150Z,100787.02
2023-01-26T11:59:36.656Z,100783.42
2023-01-26T12:02:34.808Z,100786.61
2023-01-26T12:05:12.387Z,100784.81
2023-01-26T12:08:07.219Z,100779.31
2023-01-26T12:10:42.144Z,100766.65
2023-01-26T12:13:20.562Z,100766.45
2023-01-26T12:15:58.395Z,100766.48
2023-01-26T12:18:55.668Z,100762.53
2023-01-26T12:21:36.586Z,100760.10
2023-01-26T12:24:08.189Z,100750.92
2023-01-26T12:26:47.457Z,100747.58
2023-01-26T12:29:35.418Z,100742.90
2023-01-26T12:32:10.739Z,100742.55
2023-01-26T12:34:39.403Z,100744.20
2023-01-26T12:37:32.516Z,100747.95
2023-01-26T12:40:16.315Z,100743.06
2023-01-26T12:43:15.704Z,100734.45
2023-01-26T12:45:48.323Z,100733.54
2023-01-26T12:48:32.351Z,100729.02
2023-01-26T12:51:11.526Z,100727.73
2023-01-26T12:53:55.954Z,100730.63
2023-01-26T12:56:35.347Z,100734.83
2023-01-26T12:59:13.133Z,100735.41
2023-01-26T13:02:17.105Z,100732.98
2023-01-26T13:04:48.987Z,100735.23
2023-01-26T13:07:39.794Z,100733.74
2023-01-26T13:10:19.599Z,100735.71
2023-01-26T13:13:21.656Z,100743.13
2023-01-26T13:16:16.212Z,100746.20
2023-01-26T13:18:53.530Z,100748.52
2023-01-26T13:21:42.407Z,100748.27
2023-01-26T13:24:16.840Z,100746.86
2023-01-26T13:26:47.449Z,100750.89
2023-01-26T13:29:28.221Z,100748.28
2023-01-26T13:31:58.819Z,100745.95
2023-01-26T13:34:41.682Z,100738.06
2023-01-26T13:37:19.377Z,100740.88
2023-01-26T13:39:54.556Z,100738.73
2023-01-26T13:42:33.238Z,100738.70
2023-01-26T13:45:06.643Z,100736.04
2023-01-26T13:47:41.185Z,100737.95
2023-01-26T13:50:32.985Z,100743.46
2023-01-26T13:53:01.318Z,100745.27
2023-01-26T13:55:33.864Z,100741.97
2023-01-26T13:58:17.228Z,100740.14
2023-01-26T14:01:07.292Z,100733.98
2023-01-26T14:03:35.778Z,100732.05
2023-01-26T14:06:10.220Z,100729.89
2023-01-26T14:08:39.851Z,100728.67
2023-01-26T14:11:19.126Z,100719.65
2023-01-26T14:13:52.851Z,100721.02
2023-01-26T14:16:26.407Z,100720.21
2023-01-26T14:19:16.842Z,100719.97
2023-01-26T14:21:50.357Z,100724.52
2023-01-26T14:24:41.418Z,100725.75
2023-01-26T14:27:37.163Z,100726.79
2023-01-26T14:30:20.780Z,100731.20
2023-01-26T14:32:49.817Z,100733.48
2023-01-26T14:35:23.646Z,100732.71
2023-01-26T14:38:28.346Z,100729.74
2023-01-26T14:41:00.377Z,100729.08
2023-01-26T14:43:29.953Z,100735.05
2023-01-26T14:46:09.113Z,100732.31
2023-01-26T14:48:50.371Z,100738.39
2023-01-26T14:51:24.620Z,100740.48
2023-01-26T14:54:01.104Z,100740.11
2023-01-26T14:56:39.491Z,100737.77
2023-01-26T14:59:15.117Z,100733.66
2023-01-26T15:01:43.521Z,100731.30
2023-01-26T15:04:32.109Z,100727.64
2023-01-26T15:07:32.527Z,100728.66
2023-01-26T15:10:02.211Z,100723.55
2023-01-26T15:12:35.468Z,100724.31
2023-01-26T15:15:13.485Z,100720.27
2023-01-26T15:17:43.353Z,100727.91
2023-01-26T15:20:14.683Z,100726.58
2023-01-26T15:22:49.592Z,100728.43
2023-01-26T15:25:29.701Z,100726.48
2023-01-26T15:27:59.316Z,100726.25
2023-01-26T15:30:34.209Z,100723.09
2023-01-26T15:33:02.661Z,100722.48
2023-01-26T15:35:33.620Z,100727.92
2023-01-26T15:38:09.793Z,100727.32
2023-01-26T15:40:39.451Z,100735.61
2023-01-26T15:43:14.708Z,100743.78
2023-01-26T15:45:58.036Z,100753.75
2023-01-26T15:48:27.042Z,100753.98
2023-01-26T15:50:55.279Z,100751.31
2023-01-26T15:53:23.983Z,100749.63
2023-01-26T15:55:57.062Z,100749.45
2023-01-26T15:58:26.143Z,100750.83
2023-01-26T16:00:54.704Z,100752.73
2023-01-26T16:03:23.025Z,100757.06
2023-01-26T16:05:51.315Z,100758.09
2023-01-26T16:08:20.609Z,100761.70
2023-01-26T16:10:49.001Z,100760.59
2023-01-26T16:13:19.390Z,100761.73
2023-01-26T16:15:50.478Z,100765.23
2023-01-26T16:18:19.548Z,100767.80
2023-01-26T16:20:49.867Z,100775.02
2023-01-26T16:23:18.194Z,100775.38
2023-01-26T16:25:47.404Z,100774.59
2023-01-26T16:28:16.116Z,100776.12
2023-01-26T16:30:46.100Z,100774.64
2023-01-26T16:33:16.139Z,100777.28
2023-01-26T16:35:44.413Z,100773.39
2023-01-26T16:38:13.477Z,100778.24
2023-01-26T16:40:44.381Z,100782.65
2023-01-26T16:43:23.775Z,100783.96
2023-01-26T16:45:53.370Z,100781.89
2023-01-26T16:48:23.075Z,100781.75
2023-01-26T16:50:53.350Z,100781.16
2023-01-26T16:53:24.354Z,100780.87
2023-01-26T16:55:53.259Z,100779.54
2023-01-26T16:58:22.291Z,100779.39
2023-01-26T17:00:50.514Z,100776.11
2023-01-26T17:03:18.785Z,100777.46
2023-01-26T17:05:47.536Z,100777.25
2023-01-26T17:08:15.774Z,100779.65
2023-01-26T17:11:00.614Z,100785.77
2023-01-26T17:13:31.613Z,100787.40
2023-01-26T17:15:59.972Z,100784.75
2023-01-26T17:18:28.322Z,100778.24
2023-01-26T17:21:03.095Z,100776.64
2023-01-26T17:23:31.589Z,100772.25
2023-01-26T17:26:00.868Z,100777.70
2023-01-26T17:28:29.653Z,100780.61
2023-01-26T17:31:01.004Z,100784.62
2023-01-26T17:33:30.226Z,100784.47
2023-01-26T17:36:03.361Z,100784.14
2023-01-26T17:38:31.706Z,100786.69
2023-01-26T17:41:01.169Z,100789.45
2023-01-26T17:43:30.941Z,100792.48
2023-01-26T17:46:20.233Z,100795.86
2023-01-26T17:48:49.721Z,100795.55
2023-01-26T17:51:20.536Z,100790.53
2023-01-26T17:53:50.033Z,100790.64
2023-01-26T17:56:20.528Z,100787.73
2023-01-26T17:58:54.619Z,100787.02
2023-01-26T18:01:24.859Z,100790.30
2023-01-26T18:03:56.160Z,100790.08
2023-01-26T18:06:30.942Z,100789.15
2023-01-26T18:09:28.043Z,100788.97
2023-01-26T18:11:56.345Z,100793.88
2023-01-26T18:14:24.850Z,100799.30
2023-01-26T18:16:53.180Z,100800.52
2023-01-26T18:19:21.660Z,100790.40
2023-01-26T18:21:51.708Z,100797.88
2023-01-26T18:24:20.040Z,100799.70
2023-01-26T18:26:49.599Z,100802.64
2023-01-26T18:29:18.105Z,100810.15
2023-01-26T18:31:48.227Z,100811.79
2023-01-26T18:34:16.630Z,100811.69
2023-01-26T18:36:44.902Z,100815.40
2023-01-26T18:39:14.892Z,100812.73
2023-01-26T18:41:43.636Z,100809.59
2023-01-26T18:44:14.790Z,100811.76
2023-01-26T18:46:45.669Z,100810.81
2023-01-26T18:49:13.945Z,100806.80
2023-01-26T18:51:48.175Z,100805.08
2023-01-26T18:54:18.076Z,100800.48
2023-01-26T18:56:47.606Z,100801.95
2023-01-26T18:59:18.002Z,100800.92
2023-01-26T19:01:46.446Z,100795.71
2023-01-26T19:04:17.882Z,100800.65
2023-01-26T19:06:54.034Z,100799.72
2023-01-26T19:09:22.972Z,100802.43
2023-01-26T19:11:54.999Z,100801.05
2023-01-26T19:14:23.427Z,100803.21
2023-01-26T19:16:51.910Z,100807.28
2023-01-26T19:19:20.327Z,100808.86
2023-01-26T19:21:48.807Z,100806.13
2023-01-26T19:24:17.164Z,100804.42
2023-01-26T19:26:45.545Z,100808.35
2023-01-26T19:29:13.861Z,100808.64
2023-01-26T19:31:42.197Z,100803.25
2023-01-26T19:34:13.926Z,100805.86
2023-01-26T19:36:42.577Z,100803.64
2023-01-26T19:39:14.123Z,100802.14
2023-01-26T19:41:44.493Z,100801.92
2023-01-26T19:44:12.934Z,100807.33
2023-01-26T19:46:41.336Z,100804.51
2023-01-26T19:49:12.102Z,100810.77
2023-01-26T19:51:40.416Z,100813.23
2023-01-26T19:54:09.173Z,100819.92
2023-01-26T19:56:38.156Z,100818.89
2023-01-26T19:59:10.641Z,100818.90
2023-01-26T20:01:39.300Z,100817.55
2023-01-26T20:04:11.620Z,100819.09
2023-01-26T20:06:40.914Z,100815.70
2023-01-26T20:09:11.561Z,100812.17
2023-01-26T20:11:39.894Z,100812.02
2023-01-26T20:14:11.163Z,100812.54
2023-01-26T20:16:40.199Z,100808.52
2023-01-26T20:19:08.721Z,100809.31
2023-01-26T20:21:39.031Z,100807.59
2023-01-26T20:24:13.059Z,100808.21
2023-01-26T20:26:44.521Z,100808.89
2023-01-26T20:29:19.149Z,100813.92
2023-01-26T20:31:48.630Z,100810.94
2023-01-26T20:34:17.627Z,100813.21
2023-01-26T20:36:46.173Z,100815.46
2023-01-26T20:39:24.686Z,100813.61
2023-01-26T20:41:55.182Z,100809.35
2023-01-26T20:44:23.462Z,100804.90
2023-01-26T20:46:51.685Z,100808.85
2023-01-26T20:49:23.175Z,100805.77
2023-01-26T20:51:51.658Z,100811.13
2023-01-26T20:54:20.521Z,100812.75
2023-01-26T20:56:51.560Z,100808.86
2023-01-26T20:59:23.213Z,100808.45
2023-01-26T21:01:52.842Z,100805.21
2023-01-26T21:04:21.461Z,100804.58
2023-01-26T21:06:49.955Z,100799.14
2023-01-26T21:09:18.894Z,100800.22
2023-01-26T21:11:47.205Z,100799.77
2023-01-26T21:14:15.994Z,100801.44
2023-01-26T21:16:44.331Z,100802.02
2023-01-26T21:19:12.695Z,100804.70
2023-01-26T21:21:41.831Z,100805.78
2023-01-26T21:24:13.782Z,100805.04
2023-01-26T21:26:43.086Z,100804.04
2023-01-26T21:29:15.032Z,100803.32
2023-01-26T21:31:45.715Z,100799.19
2023-01-26T21:34:14.111Z,100796.52
2023-01-26T21:36:42.483Z,100794.17
2023-01-26T21:39:13.504Z,100799.29
2023-01-26T21:41:57.354Z,100795.55
2023-01-26T21:44:31.446Z,100797.08
2023-01-26T21:47:03.203Z,100795.32
2023-01-26T21:49:31.647Z,100796.58
2023-01-26T21:52:18.767Z,100795.94
2023-01-26T21:54:47.181Z,100792.52
2023-01-26T21:57:34.690Z,100798.71
2023-01-26T22:00:03.512Z,100801.42
2023-01-26T22:02:31.851Z,100803.30
2023-01-26T22:05:00.227Z,100806.09
2023-01-26T22:07:54.353Z,100803.52
2023-01-26T22:10:22.733Z,100801.42
2023-01-26T22:12:53.571Z,100802.71
2023-01-26T22:15:21.841Z,100802.02
2023-01-26T22:17:50.285Z,100799.10
2023-01-26T22:20:22.558Z,100798.41
2023-01-26T22:22:54.149Z,100795.79
2023-01-26T22:25:22.492Z,100796.16
2023-01-26T22:27:53.583Z,100795.30
2023-01-26T22:30:22.244Z,100791.39
2023-01-26T22:32:53.644Z,100786.67
2023-01-26T22:35:22.044Z,100785.95
2023-01-26T22:37:50.946Z,100782.08
2023-01-26T22:40:19.691Z,100781.76
2023-01-26T22:42:47.932Z,100786.96
2023-01-26T22:45:16.316Z,100784.41
2023-01-26T22:47:46.925Z,100783.95
2023-01-26T22:53:35.352Z,100779.01
2023-01-26T22:56:11.206Z,100783.79
2023-01-26T22:58:56.585Z,100789.83
2023-01-26T23:01:31.719Z,100787.09
2023-01-26T23:04:02.856Z,100785.72
2023-01-26T23:06:31.495Z,100786.20
2023-01-26T23:09:07.671Z,100789.64
2023-01-26T23:11:46.936Z,100778.83
2023-01-26T23:14:19.183Z,100776.92
2023-01-26T23:16:55.788Z,100784.31
2023-01-26T23:19:27.972Z,100785.31
2023-01-26T23:22:08.381Z,100787.15
2023-01-26T23:25:03.311Z,100784.42
2023-01-26T23:27:35.031Z,100786.60
2023-01-26T23:30:07.202Z,100782.80
2023-01-26T23:32:47.937Z,100787.55
2023-01-26T23:35:16.802Z,100785.25
2023-01-26T23:38:25.592Z,100788.89
2023-01-26T23:41:24.760Z,100795.02
2023-01-26T23:44:04.495Z,100796.35
2023-01-26T23:49:53.472Z,100795.98
2023-01-26T23:57:47.811Z,100790.73
